ARE267C SKBO-SKPS
Flight info
| Callsign | ARE267C |
|---|---|
| Flight time | 0h 46m |
| Altitude | 38000 |
| Route | VAPOM4R OREGA DCT MER |
| Aircraft | A20N/M-SDE2E3FGHIRWXY/LB1 |
Departure
| Time | 2026-04-25 12:27 |
|---|---|
| Airport | El Dorado International Airport (SKBO) |
Arrival
| Time | 2026-04-25 13:14 |
|---|---|
| Airport | Antonio Nariño Airport (SKPS) |
| Time | Latitude | Longitude | Altitude | Speed | Heading |
|---|---|---|---|---|---|
| 2026-04-25 11:55 | 4.69876 | -74.14448 | 8365 ft | 0 kts | 220° |
| 2026-04-25 12:10 | 4.69881 | -74.14445 | 8365 ft | 1 kts | 220° |
| 2026-04-25 12:10 | 4.69887 | -74.14440 | 8365 ft | 1 kts | 220° |
| 2026-04-25 12:11 | 4.69892 | -74.14435 | 8365 ft | 1 kts | 221° |
| 2026-04-25 12:11 | 4.69898 | -74.14429 | 8365 ft | 1 kts | 235° |
| 2026-04-25 12:11 | 4.69902 | -74.14423 | 8365 ft | 1 kts | 250° |
| 2026-04-25 12:11 | 4.69905 | -74.14415 | 8366 ft | 1 kts | 266° |
| 2026-04-25 12:12 | 4.69905 | -74.14408 | 8366 ft | 1 kts | 284° |
| 2026-04-25 12:12 | 4.69904 | -74.14403 | 8366 ft | 1 kts | 297° |
| 2026-04-25 12:12 | 4.69901 | -74.14398 | 8366 ft | 0 kts | 309° |
| 2026-04-25 12:17 | 4.69902 | -74.14399 | 8366 ft | 2 kts | 309° |
| 2026-04-25 12:17 | 4.69916 | -74.14416 | 8366 ft | 3 kts | 308° |
| 2026-04-25 12:17 | 4.69929 | -74.14432 | 8366 ft | 2 kts | 308° |
| 2026-04-25 12:17 | 4.69936 | -74.14442 | 8366 ft | 1 kts | 308° |
| 2026-04-25 12:18 | 4.69938 | -74.14444 | 8365 ft | 0 kts | 308° |
| 2026-04-25 12:18 | 4.69961 | -74.14473 | 8365 ft | 11 kts | 308° |
| 2026-04-25 12:19 | 4.70078 | -74.14592 | 8365 ft | 14 kts | 329° |
| 2026-04-25 12:19 | 4.70161 | -74.14684 | 8365 ft | 12 kts | 293° |
| 2026-04-25 12:19 | 4.70135 | -74.14726 | 8365 ft | 9 kts | 218° |
| 2026-04-25 12:20 | 4.70070 | -74.14773 | 8365 ft | 14 kts | 217° |
| 2026-04-25 12:20 | 4.69982 | -74.14841 | 8365 ft | 18 kts | 217° |
| 2026-04-25 12:20 | 4.69875 | -74.14921 | 8364 ft | 21 kts | 219° |
| 2026-04-25 12:20 | 4.69863 | -74.14985 | 8364 ft | 7 kts | 294° |
| 2026-04-25 12:21 | 4.69897 | -74.15036 | 8364 ft | 11 kts | 308° |
| 2026-04-25 12:21 | 4.69947 | -74.15103 | 8364 ft | 14 kts | 307° |
| 2026-04-25 12:21 | 4.70012 | -74.15189 | 8363 ft | 17 kts | 307° |
| 2026-04-25 12:21 | 4.70088 | -74.15288 | 8363 ft | 19 kts | 308° |
| 2026-04-25 12:22 | 4.70173 | -74.15399 | 8363 ft | 21 kts | 308° |
| 2026-04-25 12:22 | 4.70265 | -74.15522 | 8363 ft | 23 kts | 306° |
| 2026-04-25 12:22 | 4.70364 | -74.15652 | 8362 ft | 24 kts | 307° |
| 2026-04-25 12:22 | 4.70467 | -74.15789 | 8362 ft | 25 kts | 307° |
| 2026-04-25 12:23 | 4.70574 | -74.15931 | 8362 ft | 26 kts | 307° |
| 2026-04-25 12:23 | 4.70683 | -74.16075 | 8362 ft | 26 kts | 307° |
| 2026-04-25 12:23 | 4.70796 | -74.16224 | 8362 ft | 27 kts | 307° |
| 2026-04-25 12:23 | 4.70911 | -74.16377 | 8362 ft | 28 kts | 307° |
| 2026-04-25 12:24 | 4.71029 | -74.16532 | 8362 ft | 28 kts | 307° |
| 2026-04-25 12:24 | 4.71149 | -74.16689 | 8361 ft | 29 kts | 307° |
| 2026-04-25 12:24 | 4.71180 | -74.16813 | 8361 ft | 18 kts | 212° |
| 2026-04-25 12:24 | 4.71133 | -74.16844 | 8361 ft | 0 kts | 216° |
| 2026-04-25 12:26 | 4.71082 | -74.16883 | 8360 ft | 18 kts | 210° |
| 2026-04-25 12:27 | 4.70976 | -74.16818 | 8361 ft | 29 kts | 124° |
| 2026-04-25 12:27 | 4.70684 | -74.16422 | 8363 ft | 109 kts | 128° |
| 2026-04-25 12:27 | 4.70087 | -74.15634 | 8365 ft | 171 kts | 126° |
| 2026-04-25 12:27 | 4.69333 | -74.14640 | 9022 ft | 184 kts | 125° |
| 2026-04-25 12:28 | 4.68677 | -74.13543 | 10003 ft | 181 kts | 112° |
| 2026-04-25 12:28 | 4.68053 | -74.12442 | 10592 ft | 193 kts | 126° |
| 2026-04-25 12:28 | 4.67157 | -74.11338 | 10946 ft | 214 kts | 130° |
| 2026-04-25 12:28 | 4.66141 | -74.10146 | 11258 ft | 236 kts | 130° |
| 2026-04-25 12:29 | 4.65067 | -74.08821 | 11682 ft | 249 kts | 128° |
| 2026-04-25 12:29 | 4.63995 | -74.07440 | 12305 ft | 254 kts | 130° |
| 2026-04-25 12:29 | 4.62561 | -74.06333 | 12577 ft | 274 kts | 158° |
| 2026-04-25 12:29 | 4.60652 | -74.05996 | 13014 ft | 286 kts | 185° |
| 2026-04-25 12:30 | 4.58676 | -74.06540 | 13282 ft | 308 kts | 209° |
| 2026-04-25 12:30 | 4.56972 | -74.07953 | 13519 ft | 331 kts | 232° |
| 2026-04-25 12:30 | 4.55885 | -74.10024 | 13746 ft | 352 kts | 254° |
| 2026-04-25 12:30 | 4.55480 | -74.12479 | 14344 ft | 360 kts | 264° |
| 2026-04-25 12:31 | 4.55143 | -74.14979 | 15056 ft | 363 kts | 260° |
| 2026-04-25 12:31 | 4.54589 | -74.17463 | 15740 ft | 367 kts | 255° |
| 2026-04-25 12:31 | 4.53667 | -74.19869 | 16413 ft | 371 kts | 244° |
| 2026-04-25 12:31 | 4.52495 | -74.22191 | 17069 ft | 376 kts | 243° |
| 2026-04-25 12:32 | 4.51285 | -74.24527 | 17704 ft | 380 kts | 243° |
| 2026-04-25 12:32 | 4.50058 | -74.26890 | 18325 ft | 384 kts | 243° |
| 2026-04-25 12:32 | 4.48821 | -74.29279 | 18890 ft | 388 kts | 243° |
| 2026-04-25 12:32 | 4.47574 | -74.31696 | 19425 ft | 391 kts | 243° |
| 2026-04-25 12:33 | 4.46322 | -74.34130 | 19941 ft | 395 kts | 243° |
| 2026-04-25 12:33 | 4.45060 | -74.36585 | 20451 ft | 399 kts | 243° |
| 2026-04-25 12:33 | 4.43782 | -74.39072 | 20963 ft | 403 kts | 243° |
| 2026-04-25 12:33 | 4.42494 | -74.41579 | 21470 ft | 407 kts | 243° |
| 2026-04-25 12:34 | 4.41191 | -74.44114 | 21992 ft | 410 kts | 243° |
| 2026-04-25 12:34 | 4.39879 | -74.46668 | 22492 ft | 414 kts | 243° |
| 2026-04-25 12:34 | 4.38554 | -74.49246 | 22995 ft | 418 kts | 243° |
| 2026-04-25 12:34 | 4.38118 | -74.50093 | 23150 ft | 420 kts | 243° |
| 2026-04-25 12:35 | 4.35871 | -74.54465 | 23896 ft | 426 kts | 243° |
| 2026-04-25 12:35 | 4.34506 | -74.57121 | 24295 ft | 430 kts | 243° |
| 2026-04-25 12:35 | 4.33132 | -74.59796 | 24695 ft | 433 kts | 243° |
| 2026-04-25 12:35 | 4.31750 | -74.62484 | 25110 ft | 436 kts | 242° |
| 2026-04-25 12:36 | 4.30354 | -74.65198 | 25511 ft | 439 kts | 242° |
| 2026-04-25 12:36 | 4.28949 | -74.67932 | 25884 ft | 442 kts | 242° |
| 2026-04-25 12:36 | 4.27553 | -74.70645 | 26255 ft | 445 kts | 242° |
| 2026-04-25 12:36 | 4.26128 | -74.73417 | 26635 ft | 449 kts | 242° |
| 2026-04-25 12:37 | 4.24693 | -74.76207 | 27004 ft | 452 kts | 242° |
| 2026-04-25 12:37 | 4.23249 | -74.79014 | 27369 ft | 455 kts | 242° |
| 2026-04-25 12:37 | 4.21789 | -74.81853 | 27731 ft | 458 kts | 242° |
| 2026-04-25 12:37 | 4.20323 | -74.84701 | 28075 ft | 461 kts | 241° |
| 2026-04-25 12:38 | 4.18846 | -74.87573 | 28426 ft | 464 kts | 241° |
| 2026-04-25 12:38 | 4.17364 | -74.90454 | 28777 ft | 467 kts | 241° |
| 2026-04-25 12:38 | 4.15869 | -74.93360 | 29112 ft | 470 kts | 241° |
| 2026-04-25 12:38 | 4.14367 | -74.96279 | 29437 ft | 473 kts | 241° |
| 2026-04-25 12:39 | 4.13367 | -74.98223 | 29663 ft | 475 kts | 240° |
| 2026-04-25 12:39 | 4.11352 | -75.02138 | 30092 ft | 479 kts | 240° |
| 2026-04-25 12:39 | 4.09820 | -75.05115 | 30401 ft | 481 kts | 240° |
| 2026-04-25 12:39 | 4.08280 | -75.08106 | 30753 ft | 482 kts | 240° |
| 2026-04-25 12:40 | 4.07257 | -75.10094 | 30965 ft | 483 kts | 240° |
| 2026-04-25 12:40 | 4.05715 | -75.13087 | 31325 ft | 484 kts | 240° |
| 2026-04-25 12:40 | 4.04173 | -75.16081 | 31763 ft | 483 kts | 240° |
| 2026-04-25 12:40 | 4.02633 | -75.19071 | 32220 ft | 481 kts | 240° |
| 2026-04-25 12:41 | 4.01103 | -75.22042 | 32664 ft | 480 kts | 240° |
| 2026-04-25 12:41 | 3.99575 | -75.25009 | 33076 ft | 478 kts | 240° |
| 2026-04-25 12:41 | 3.98050 | -75.27967 | 33493 ft | 477 kts | 240° |
| 2026-04-25 12:41 | 3.96532 | -75.30914 | 33883 ft | 476 kts | 240° |
| 2026-04-25 12:42 | 3.95026 | -75.33836 | 34258 ft | 475 kts | 240° |
| 2026-04-25 12:42 | 3.94001 | -75.35824 | 34494 ft | 475 kts | 240° |
| 2026-04-25 12:42 | 3.91999 | -75.39709 | 34927 ft | 473 kts | 240° |
| 2026-04-25 12:42 | 3.90411 | -75.42590 | 35253 ft | 470 kts | 234° |
| 2026-04-25 12:43 | 3.88365 | -75.45120 | 35516 ft | 466 kts | 222° |
| 2026-04-25 12:43 | 3.85909 | -75.47228 | 35806 ft | 464 kts | 216° |
| 2026-04-25 12:43 | 3.80879 | -75.51278 | 36382 ft | 463 kts | 216° |
| 2026-04-25 12:44 | 3.78372 | -75.53304 | 36695 ft | 462 kts | 217° |
| 2026-04-25 12:44 | 3.75872 | -75.55331 | 36978 ft | 462 kts | 217° |
| 2026-04-25 12:44 | 3.70914 | -75.59361 | 37520 ft | 461 kts | 217° |
| 2026-04-25 12:45 | 3.68426 | -75.61384 | 37803 ft | 460 kts | 217° |
| 2026-04-25 12:45 | 3.65944 | -75.63402 | 38076 ft | 460 kts | 217° |
| 2026-04-25 12:45 | 3.60980 | -75.67437 | 38577 ft | 459 kts | 217° |
| 2026-04-25 12:46 | 3.58502 | -75.69452 | 38813 ft | 459 kts | 217° |
| 2026-04-25 12:46 | 3.56024 | -75.71465 | 39024 ft | 458 kts | 217° |
| 2026-04-25 12:46 | 3.53551 | -75.73475 | 39131 ft | 458 kts | 217° |
| 2026-04-25 12:46 | 3.51081 | -75.75482 | 39143 ft | 457 kts | 217° |
| 2026-04-25 12:47 | 3.46171 | -75.79472 | 39148 ft | 457 kts | 217° |
| 2026-04-25 12:47 | 3.41189 | -75.83519 | 39147 ft | 462 kts | 217° |
| 2026-04-25 12:48 | 3.36175 | -75.87590 | 39143 ft | 471 kts | 217° |
| 2026-04-25 12:48 | 3.31045 | -75.91756 | 39145 ft | 475 kts | 217° |
| 2026-04-25 12:49 | 3.25921 | -75.95919 | 39150 ft | 474 kts | 217° |
| 2026-04-25 12:49 | 3.20798 | -76.00079 | 39146 ft | 473 kts | 218° |
| 2026-04-25 12:50 | 3.15718 | -76.04204 | 39142 ft | 473 kts | 218° |
| 2026-04-25 12:50 | 3.10603 | -76.08355 | 39141 ft | 473 kts | 218° |
| 2026-04-25 12:51 | 3.05496 | -76.12500 | 39142 ft | 472 kts | 218° |
| 2026-04-25 12:51 | 3.00399 | -76.16637 | 39141 ft | 471 kts | 218° |
| 2026-04-25 12:52 | 2.95305 | -76.20771 | 39125 ft | 471 kts | 218° |
| 2026-04-25 12:52 | 2.90218 | -76.24898 | 39126 ft | 470 kts | 218° |
| 2026-04-25 12:53 | 2.85141 | -76.29017 | 39112 ft | 470 kts | 218° |
| 2026-04-25 12:53 | 2.80054 | -76.33144 | 39117 ft | 471 kts | 218° |
| 2026-04-25 12:54 | 2.74960 | -76.37277 | 39113 ft | 471 kts | 218° |
| 2026-04-25 12:54 | 2.69900 | -76.41381 | 39131 ft | 470 kts | 218° |
| 2026-04-25 12:55 | 2.65725 | -76.44766 | 38687 ft | 463 kts | 218° |
| 2026-04-25 12:55 | 2.62354 | -76.47501 | 37363 ft | 471 kts | 218° |
| 2026-04-25 12:55 | 2.59786 | -76.49584 | 36349 ft | 478 kts | 218° |
| 2026-04-25 12:56 | 2.57196 | -76.51686 | 35569 ft | 479 kts | 217° |
| 2026-04-25 12:56 | 2.54599 | -76.53794 | 34752 ft | 482 kts | 217° |
| 2026-04-25 12:56 | 2.51980 | -76.55920 | 33873 ft | 486 kts | 217° |
| 2026-04-25 12:56 | 2.49381 | -76.58027 | 33062 ft | 486 kts | 217° |
| 2026-04-25 12:57 | 2.46742 | -76.60165 | 32173 ft | 488 kts | 217° |
| 2026-04-25 12:57 | 2.44099 | -76.62307 | 31261 ft | 490 kts | 217° |
| 2026-04-25 12:57 | 2.41452 | -76.64453 | 30605 ft | 486 kts | 217° |
| 2026-04-25 12:57 | 2.38834 | -76.66576 | 29880 ft | 483 kts | 218° |
| 2026-04-25 12:58 | 2.36239 | -76.68678 | 29251 ft | 476 kts | 218° |
| 2026-04-25 12:58 | 2.33676 | -76.70755 | 28605 ft | 471 kts | 218° |
| 2026-04-25 12:58 | 2.31145 | -76.72806 | 27964 ft | 465 kts | 218° |
| 2026-04-25 12:58 | 2.28641 | -76.74834 | 27319 ft | 461 kts | 218° |
| 2026-04-25 12:59 | 2.26190 | -76.76818 | 26676 ft | 457 kts | 218° |
| 2026-04-25 12:59 | 2.23734 | -76.78806 | 26047 ft | 453 kts | 219° |
| 2026-04-25 12:59 | 2.21292 | -76.80782 | 25414 ft | 449 kts | 219° |
| 2026-04-25 12:59 | 2.18863 | -76.82749 | 24768 ft | 446 kts | 219° |
| 2026-04-25 13:00 | 2.16463 | -76.84691 | 24135 ft | 443 kts | 219° |
| 2026-04-25 13:00 | 2.14876 | -76.85976 | 23711 ft | 442 kts | 220° |
| 2026-04-25 13:00 | 2.11699 | -76.88548 | 22871 ft | 435 kts | 220° |
| 2026-04-25 13:00 | 2.09360 | -76.90444 | 22264 ft | 430 kts | 220° |
| 2026-04-25 13:01 | 2.07046 | -76.92319 | 21648 ft | 425 kts | 220° |
| 2026-04-25 13:01 | 2.04759 | -76.94172 | 21050 ft | 421 kts | 220° |
| 2026-04-25 13:01 | 2.02490 | -76.96010 | 20429 ft | 417 kts | 220° |
| 2026-04-25 13:01 | 2.00271 | -76.97806 | 19817 ft | 414 kts | 220° |
| 2026-04-25 13:02 | 1.98043 | -76.99611 | 19237 ft | 410 kts | 220° |
| 2026-04-25 13:02 | 1.95838 | -77.01397 | 18641 ft | 406 kts | 220° |
| 2026-04-25 13:02 | 1.93667 | -77.03154 | 18053 ft | 394 kts | 220° |
| 2026-04-25 13:02 | 1.91570 | -77.04853 | 17486 ft | 380 kts | 220° |
| 2026-04-25 13:03 | 1.89541 | -77.06496 | 16931 ft | 368 kts | 220° |
| 2026-04-25 13:03 | 1.87585 | -77.08081 | 16403 ft | 357 kts | 219° |
| 2026-04-25 13:03 | 1.85682 | -77.09624 | 15891 ft | 347 kts | 219° |
| 2026-04-25 13:03 | 1.83855 | -77.11105 | 15392 ft | 342 kts | 219° |
| 2026-04-25 13:04 | 1.81924 | -77.12672 | 15028 ft | 366 kts | 219° |
| 2026-04-25 13:04 | 1.79947 | -77.14271 | 14821 ft | 365 kts | 218° |
| 2026-04-25 13:04 | 1.77847 | -77.15710 | 14140 ft | 368 kts | 210° |
| 2026-04-25 13:04 | 1.75569 | -77.16938 | 13129 ft | 373 kts | 208° |
| 2026-04-25 13:05 | 1.73298 | -77.18141 | 12499 ft | 363 kts | 208° |
| 2026-04-25 13:05 | 1.71127 | -77.19295 | 12149 ft | 345 kts | 208° |
| 2026-04-25 13:05 | 1.69042 | -77.20406 | 11677 ft | 334 kts | 208° |
| 2026-04-25 13:05 | 1.67000 | -77.21499 | 10997 ft | 331 kts | 208° |
| 2026-04-25 13:06 | 1.64989 | -77.22576 | 10494 ft | 323 kts | 208° |
| 2026-04-25 13:06 | 1.63042 | -77.23619 | 10126 ft | 321 kts | 208° |
| 2026-04-25 13:06 | 1.61008 | -77.24708 | 9982 ft | 334 kts | 208° |
| 2026-04-25 13:06 | 1.59005 | -77.25781 | 9942 ft | 318 kts | 208° |
| 2026-04-25 13:07 | 1.57109 | -77.26796 | 9953 ft | 300 kts | 208° |
| 2026-04-25 13:07 | 1.55322 | -77.27754 | 9961 ft | 283 kts | 208° |
| 2026-04-25 13:07 | 1.53635 | -77.28656 | 9967 ft | 266 kts | 208° |
| 2026-04-25 13:07 | 1.52054 | -77.29497 | 9935 ft | 249 kts | 207° |
| 2026-04-25 13:08 | 1.50546 | -77.30260 | 9845 ft | 236 kts | 206° |
| 2026-04-25 13:08 | 1.49129 | -77.30961 | 9812 ft | 216 kts | 206° |
| 2026-04-25 13:08 | 1.47833 | -77.31601 | 9688 ft | 200 kts | 206° |
| 2026-04-25 13:08 | 1.46643 | -77.32191 | 9578 ft | 183 kts | 206° |
| 2026-04-25 13:09 | 1.45566 | -77.32728 | 9483 ft | 168 kts | 206° |
| 2026-04-25 13:09 | 1.44569 | -77.33226 | 9391 ft | 152 kts | 206° |
| 2026-04-25 13:09 | 1.43632 | -77.33695 | 9127 ft | 150 kts | 206° |
| 2026-04-25 13:09 | 1.42700 | -77.34162 | 8869 ft | 147 kts | 206° |
| 2026-04-25 13:10 | 1.41786 | -77.34619 | 8823 ft | 148 kts | 206° |
| 2026-04-25 13:10 | 1.40846 | -77.35089 | 8817 ft | 151 kts | 206° |
| 2026-04-25 13:10 | 1.39911 | -77.35558 | 8811 ft | 150 kts | 206° |
| 2026-04-25 13:10 | 1.38971 | -77.36030 | 8796 ft | 151 kts | 206° |
| 2026-04-25 13:11 | 1.38021 | -77.36440 | 8778 ft | 151 kts | 194° |
| 2026-04-25 13:11 | 1.36996 | -77.36552 | 8655 ft | 147 kts | 176° |
| 2026-04-25 13:11 | 1.36001 | -77.36343 | 8379 ft | 146 kts | 158° |
| 2026-04-25 13:11 | 1.35116 | -77.35842 | 8087 ft | 147 kts | 141° |
| 2026-04-25 13:12 | 1.34420 | -77.35092 | 7831 ft | 147 kts | 124° |
| 2026-04-25 13:12 | 1.33980 | -77.34168 | 7557 ft | 148 kts | 107° |
| 2026-04-25 13:12 | 1.33842 | -77.33140 | 7306 ft | 154 kts | 89° |
| 2026-04-25 13:12 | 1.33933 | -77.32441 | 7248 ft | 150 kts | 76° |
| 2026-04-25 13:13 | 1.34513 | -77.31204 | 7065 ft | 147 kts | 53° |
| 2026-04-25 13:13 | 1.35226 | -77.30500 | 6946 ft | 146 kts | 35° |
| 2026-04-25 13:13 | 1.36127 | -77.30037 | 6817 ft | 145 kts | 18° |
| 2026-04-25 13:13 | 1.37105 | -77.29787 | 6673 ft | 146 kts | 13° |
| 2026-04-25 13:14 | 1.38112 | -77.29526 | 6178 ft | 153 kts | 15° |
| 2026-04-25 13:14 | 1.39112 | -77.29237 | 5932 ft | 142 kts | 10° |
| 2026-04-25 13:14 | 1.39792 | -77.29068 | 5897 ft | 46 kts | 15° |
| 2026-04-25 13:14 | 1.40107 | -77.28975 | 5879 ft | 48 kts | 16° |
| 2026-04-25 13:15 | 1.40433 | -77.28898 | 5864 ft | 47 kts | 15° |
| 2026-04-25 13:15 | 1.40604 | -77.28851 | 5853 ft | 15 kts | 18° |
| 2026-04-25 13:15 | 1.40614 | -77.28847 | 5852 ft | 1 kts | 21° |
| 2026-04-25 13:15 | 1.40605 | -77.28850 | 5853 ft | 1 kts | 308° |
| 2026-04-25 13:16 | 1.40599 | -77.28845 | 5853 ft | 5 kts | 249° |
| 2026-04-25 13:16 | 1.40584 | -77.28854 | 5855 ft | 6 kts | 208° |
| 2026-04-25 13:16 | 1.40527 | -77.28872 | 5859 ft | 12 kts | 195° |
| 2026-04-25 13:16 | 1.40428 | -77.28898 | 5865 ft | 18 kts | 194° |
| 2026-04-25 13:17 | 1.40291 | -77.28934 | 5872 ft | 23 kts | 194° |
| 2026-04-25 13:17 | 1.40128 | -77.28975 | 5879 ft | 25 kts | 193° |
| 2026-04-25 13:17 | 1.39949 | -77.29023 | 5886 ft | 28 kts | 195° |
| 2026-04-25 13:17 | 1.39758 | -77.29074 | 5899 ft | 29 kts | 194° |
| 2026-04-25 13:18 | 1.39668 | -77.29053 | 5902 ft | 1 kts | 81° |
| 2026-04-25 13:18 | 1.39656 | -77.29033 | 5904 ft | 7 kts | 141° |
| 2026-04-25 13:18 | 1.39588 | -77.29015 | 5906 ft | 13 kts | 181° |
| 2026-04-25 13:18 | 1.39526 | -77.29027 | 5909 ft | 0 kts | 199° |
| 2026-04-25 13:19 | 1.39525 | -77.29028 | 5909 ft | 0 kts | 199° |